RJKB(METAR)
12/04 17:00
RJKB 040800Z 01005KT CAVOK 24/21 Q1015 RMK A3000=
戻る
トップページへ戻る
IMOC Co,.Ltd.